createdAt,value
2022-12-10T08:10:49.001Z,17.67
2022-12-10T08:13:17.004Z,20.60
2022-12-10T08:15:45.040Z,20.00
2022-12-10T08:18:13.131Z,18.97
2022-12-10T08:20:41.203Z,21.17
2022-12-10T08:23:09.212Z,21.87
2022-12-10T08:25:40.597Z,22.17
2022-12-10T08:28:10.297Z,22.73
2022-12-10T08:30:38.341Z,22.70
2022-12-10T08:33:06.378Z,21.90
2022-12-10T08:35:34.389Z,20.17
2022-12-10T08:38:02.398Z,22.27
2022-12-10T08:40:30.680Z,21.57
2022-12-10T08:42:58.693Z,19.27
2022-12-10T08:45:29.453Z,22.17
2022-12-10T08:47:57.522Z,20.27
2022-12-10T08:50:25.544Z,21.57
2022-12-10T08:52:53.585Z,21.77
2022-12-10T08:55:21.591Z,21.43
2022-12-10T08:57:49.744Z,22.13
2022-12-10T09:00:19.766Z,20.47
2022-12-10T09:02:49.351Z,22.90
2022-12-10T09:05:17.713Z,21.03
2022-12-10T09:07:45.788Z,21.47
2022-12-10T09:10:13.890Z,23.77
2022-12-10T09:12:42.079Z,22.70
2022-12-10T09:15:11.929Z,22.90
2022-12-10T09:17:40.456Z,22.17
2022-12-10T09:20:10.873Z,24.70
2022-12-10T09:22:39.401Z,25.80
2022-12-10T09:25:10.910Z,25.93
2022-12-10T09:27:39.145Z,27.93
2022-12-10T09:30:08.460Z,28.53
2022-12-10T09:32:36.656Z,28.23
2022-12-10T09:35:05.412Z,29.13
2022-12-10T09:37:34.814Z,28.93
2022-12-10T09:40:04.296Z,29.50
2022-12-10T09:42:42.757Z,31.07
2022-12-10T09:45:18.413Z,28.87
2022-12-10T09:47:54.954Z,26.63
2022-12-10T09:50:28.620Z,26.10
2022-12-10T09:53:01.102Z,26.53
2022-12-10T09:55:37.269Z,24.50
2022-12-10T09:58:07.492Z,24.37
2022-12-10T10:00:39.384Z,25.27
2022-12-10T10:03:08.449Z,25.23
2022-12-10T10:05:41.120Z,25.37
2022-12-10T10:08:19.391Z,24.77
2022-12-10T10:10:48.222Z,25.33
2022-12-10T10:13:23.568Z,27.97
2022-12-10T10:15:52.517Z,29.07
2022-12-10T10:18:30.502Z,29.10
2022-12-10T10:20:59.096Z,24.80
2022-12-10T10:23:28.648Z,23.80
2022-12-10T10:25:56.692Z,24.57
2022-12-10T10:28:25.331Z,25.63
2022-12-10T10:30:55.565Z,26.03
2022-12-10T10:33:23.846Z,25.17
2022-12-10T10:35:56.424Z,25.10
2022-12-10T10:38:26.259Z,26.53
2022-12-10T10:40:57.654Z,26.20
2022-12-10T10:43:28.279Z,24.50
2022-12-10T10:46:00.357Z,24.33
2022-12-10T10:48:29.921Z,23.70
2022-12-10T10:51:09.283Z,23.40
2022-12-10T10:53:44.697Z,25.27
2022-12-10T10:56:21.649Z,25.63
2022-12-10T10:58:55.049Z,24.17
2022-12-10T11:01:25.447Z,24.83
2022-12-10T11:03:57.639Z,22.23
2022-12-10T11:06:26.397Z,22.17
2022-12-10T11:08:58.616Z,24.13
2022-12-10T11:11:36.998Z,23.80
2022-12-10T11:14:25.965Z,25.67
2022-12-10T11:17:03.259Z,23.03
2022-12-10T11:19:31.418Z,21.87
2022-12-10T11:22:18.287Z,20.10
2022-12-10T11:24:48.660Z,18.70
2022-12-10T11:27:27.365Z,17.80
2022-12-10T11:30:02.934Z,18.60
2022-12-10T11:32:46.209Z,17.10
2022-12-10T11:35:18.887Z,17.60
2022-12-10T11:37:55.074Z,15.90
2022-12-10T11:40:46.710Z,16.33
2022-12-10T11:43:44.555Z,16.90
2022-12-10T11:46:35.663Z,16.43
2022-12-10T11:49:18.853Z,16.70
2022-12-10T11:51:52.376Z,15.53
2022-12-10T11:54:33.000Z,15.53
2022-12-10T11:57:08.209Z,15.80
2022-12-10T12:00:04.154Z,16.40
2022-12-10T12:02:50.158Z,14.90
2022-12-10T12:05:35.164Z,15.23
2022-12-10T12:08:14.257Z,16.63
2022-12-10T12:11:03.927Z,15.87
2022-12-10T12:13:37.745Z,15.73
2022-12-10T12:16:13.353Z,15.87
2022-12-10T12:18:48.189Z,15.43
2022-12-10T12:21:18.443Z,14.77
2022-12-10T12:23:52.420Z,15.67
2022-12-10T12:26:26.719Z,15.93
2022-12-10T12:28:59.109Z,16.30
2022-12-10T12:31:38.984Z,17.47
2022-12-10T12:34:15.076Z,18.27
2022-12-10T12:36:43.815Z,17.50
2022-12-10T12:39:22.008Z,17.37
2022-12-10T12:42:01.588Z,17.80
2022-12-10T12:44:36.487Z,18.10
2022-12-10T12:47:21.601Z,18.90
2022-12-10T12:49:51.129Z,17.63
2022-12-10T12:52:33.390Z,18.43
2022-12-10T12:55:06.064Z,18.93
2022-12-10T12:57:43.372Z,18.77
2022-12-10T13:00:19.211Z,18.23
2022-12-10T13:03:01.107Z,18.57
2022-12-10T13:05:34.392Z,17.60
2022-12-10T13:08:29.999Z,17.23
2022-12-10T13:11:17.898Z,16.90
2022-12-10T13:14:19.185Z,16.77
2022-12-10T13:17:01.515Z,16.47
2022-12-10T13:19:32.686Z,16.50
2022-12-10T13:22:12.670Z,16.10
2022-12-10T13:25:13.485Z,15.17
2022-12-10T13:27:42.661Z,15.60
2022-12-10T13:30:36.558Z,16.40
2022-12-10T13:33:17.318Z,14.50
2022-12-10T13:35:57.051Z,15.40
2022-12-10T13:38:26.481Z,14.03
2022-12-10T13:41:32.708Z,15.43
2022-12-10T13:44:25.496Z,14.53
2022-12-10T13:46:57.172Z,15.33
2022-12-10T13:49:27.062Z,14.53
2022-12-10T13:52:03.280Z,15.17
2022-12-10T13:55:20.957Z,16.93
2022-12-10T13:58:05.667Z,17.70
2022-12-10T14:00:40.768Z,18.57
2022-12-10T14:03:39.550Z,16.87
2022-12-10T14:06:16.073Z,15.77
2022-12-10T14:08:59.045Z,15.97
2022-12-10T14:11:37.065Z,15.33
2022-12-10T14:14:08.875Z,15.60
2022-12-10T14:16:38.054Z,14.57
2022-12-10T14:19:08.773Z,15.67
2022-12-10T14:21:39.818Z,16.40
2022-12-10T14:24:28.776Z,16.03
2022-12-10T14:27:00.800Z,15.73
2022-12-10T14:29:29.688Z,15.30
2022-12-10T14:31:58.497Z,16.77
2022-12-10T14:34:30.167Z,15.73
2022-12-10T14:37:00.472Z,16.90
2022-12-10T14:39:32.369Z,17.20
2022-12-10T14:42:03.296Z,17.60
2022-12-10T14:44:33.451Z,18.07
2022-12-10T14:47:07.236Z,18.30
2022-12-10T14:49:43.413Z,19.63
2022-12-10T14:52:14.219Z,18.93
2022-12-10T14:54:43.870Z,18.93
2022-12-10T14:57:18.261Z,19.37
2022-12-10T14:59:51.269Z,19.40
2022-12-10T15:02:24.775Z,19.63
